Time;durP1;ratioP1;P1;durP2;ratioP2;P2;SDS_P1;SDS_P2;PMS_P1;PMS_P2;Temp;Humidity;BMP_temperature;BMP_pressure;BME280_temperature;BME280_humidity;BME280_pressure;Samples;Min_cycle;Max_cycle;Signal;HPM_P1;HPM_P2
2021/05/09 00:01:34;;;;;;;3.13;2.00;;;15.00;73.30;;;;;;5073962;28;20085;-73
2021/05/09 00:04:00;;;;;;;3.95;2.38;;;14.90;73.30;;;;;;5073517;28;20492;-73
2021/05/09 00:06:25;;;;;;;3.50;2.25;;;14.90;73.30;;;;;;5073643;28;20127;-73
2021/05/09 00:08:51;;;;;;;3.55;2.25;;;14.90;73.30;;;;;;5073522;28;20031;-73
2021/05/09 00:11:18;;;;;;;4.15;2.42;;;14.90;73.40;;;;;;5074792;28;20025;-73
2021/05/09 00:13:45;;;;;;;3.50;2.10;;;14.90;73.40;;;;;;5074736;28;20024;-73
2021/05/09 00:16:11;;;;;;;3.78;2.38;;;14.90;73.40;;;;;;5073357;28;20051;-73
2021/05/09 00:18:37;;;;;;;3.70;2.30;;;14.90;73.50;;;;;;5074660;28;20025;-73
2021/05/09 00:21:04;;;;;;;4.15;2.38;;;14.90;73.50;;;;;;5074656;28;20054;-73
2021/05/09 00:23:29;;;;;;;5.22;2.10;;;14.80;73.40;;;;;;5074694;28;20074;-73
2021/05/09 00:25:55;;;;;;;4.60;2.33;;;14.80;73.50;;;;;;5073210;28;20032;-73
2021/05/09 00:28:21;;;;;;;2.83;2.08;;;14.80;73.50;;;;;;5073329;28;20016;-74
2021/05/09 00:30:46;;;;;;;3.67;2.20;;;14.80;73.50;;;;;;5074256;28;20025;-73
2021/05/09 00:33:13;;;;;;;3.85;2.10;;;14.80;73.50;;;;;;5074536;28;20067;-73
2021/05/09 00:35:39;;;;;;;3.58;1.98;;;14.80;73.50;;;;;;5074895;28;20020;-73
2021/05/09 00:38:05;;;;;;;3.10;2.25;;;14.80;73.50;;;;;;5074403;28;20031;-73
2021/05/09 00:40:30;;;;;;;4.30;2.25;;;14.80;73.40;;;;;;5072991;28;20021;-74
2021/05/09 00:42:56;;;;;;;5.35;2.17;;;14.80;73.40;;;;;;5072858;28;20024;-73
2021/05/09 00:45:22;;;;;;;2.10;1.70;;;14.80;73.50;;;;;;5074332;28;20024;-73
2021/05/09 00:47:49;;;;;;;4.43;2.10;;;14.80;73.50;;;;;;5074899;28;20473;-73
2021/05/09 00:50:15;;;;;;;2.60;2.10;;;14.80;73.60;;;;;;5072736;28;20016;-73
2021/05/09 00:52:43;;;;;;;3.20;1.80;;;14.70;73.50;;;;;;5074292;28;20095;-73
2021/05/09 00:55:11;;;;;;;4.30;2.03;;;14.70;73.50;;;;;;5072686;28;20059;-73
2021/05/09 00:57:37;;;;;;;2.97;1.90;;;14.70;73.50;;;;;;5072728;28;20107;-73
2021/05/09 01:00:06;;;;;;;2.30;2.08;;;14.70;73.60;;;;;;5073866;28;20130;-73
2021/05/09 01:02:33;;;;;;;4.38;2.30;;;14.70;73.60;;;;;;5074267;28;20100;-72
2021/05/09 01:04:59;;;;;;;3.30;2.28;;;14.60;73.60;;;;;;5073477;28;20028;-73
2021/05/09 01:07:26;;;;;;;3.33;2.05;;;14.60;73.70;;;;;;5073848;28;20024;-73
2021/05/09 01:09:51;;;;;;;3.90;2.30;;;14.60;73.70;;;;;;5072338;28;20306;-72
2021/05/09 01:12:17;;;;;;;2.72;2.20;;;14.60;73.70;;;;;;5073619;28;20051;-73
2021/05/09 01:14:43;;;;;;;2.17;1.98;;;14.60;73.70;;;;;;5073637;28;20028;-73
2021/05/09 01:17:10;;;;;;;3.78;2.20;;;14.60;73.80;;;;;;5072464;28;20027;-72
2021/05/09 01:19:36;;;;;;;3.50;2.10;;;14.60;73.80;;;;;;5072316;28;20052;-73
2021/05/09 01:22:06;;;;;;;4.03;2.08;;;14.60;73.90;;;;;;5073712;28;20138;-72
2021/05/09 01:24:32;;;;;;;3.78;2.35;;;14.50;73.90;;;;;;5072317;28;20120;-72
2021/05/09 01:26:58;;;;;;;2.97;2.10;;;14.50;73.90;;;;;;5071963;28;20060;-72
2021/05/09 01:29:24;;;;;;;3.78;2.15;;;14.50;74.00;;;;;;5073081;28;20074;-72
2021/05/09 01:31:51;;;;;;;3.78;2.30;;;14.50;74.00;;;;;;5072062;28;20020;-72
2021/05/09 01:34:17;;;;;;;5.97;2.10;;;14.50;74.00;;;;;;5072032;28;20040;-73
2021/05/09 01:36:43;;;;;;;3.85;2.10;;;14.50;74.00;;;;;;5073221;28;20060;-72
2021/05/09 01:39:09;;;;;;;2.60;2.05;;;14.50;74.00;;;;;;5071723;28;20142;-72
2021/05/09 01:41:35;;;;;;;3.97;2.28;;;14.40;74.10;;;;;;5071774;28;20040;-72
2021/05/09 01:44:00;;;;;;;3.45;2.38;;;14.40;74.20;;;;;;5073086;28;20024;-72
2021/05/09 01:46:26;;;;;;;5.32;2.45;;;14.40;74.30;;;;;;5071847;28;20392;-72
2021/05/09 01:48:52;;;;;;;3.47;2.42;;;14.30;74.40;;;;;;5071936;28;20047;-73
2021/05/09 01:51:18;;;;;;;3.63;2.47;;;14.20;74.50;;;;;;5071788;28;20044;-73
2021/05/09 01:53:45;;;;;;;2.42;2.17;;;14.10;74.60;;;;;;5073127;28;20384;-73
2021/05/09 01:56:11;;;;;;;4.53;2.40;;;14.10;74.70;;;;;;5073585;28;20423;-73
2021/05/09 01:58:37;;;;;;;3.72;2.17;;;14.00;74.90;;;;;;5073166;28;20029;-73
2021/05/09 02:01:03;;;;;;;3.72;2.35;;;13.90;75.00;;;;;;5071714;28;20025;-73
2021/05/09 02:03:29;;;;;;;3.53;2.53;;;13.90;75.10;;;;;;5073037;28;20055;-73
2021/05/09 02:05:55;;;;;;;4.55;2.65;;;13.80;75.20;;;;;;5072984;28;20028;-73
2021/05/09 02:08:22;;;;;;;3.67;2.60;;;13.80;75.30;;;;;;5071586;28;20029;-73
2021/05/09 02:10:48;;;;;;;3.55;2.47;;;13.70;75.40;;;;;;5071522;28;20490;-73
2021/05/09 02:13:13;;;;;;;4.55;2.40;;;13.70;75.50;;;;;;5073002;28;20078;-73
2021/05/09 02:15:39;;;;;;;3.30;2.60;;;13.60;75.60;;;;;;5071596;28;20033;-73
2021/05/09 02:18:05;;;;;;;2.65;2.30;;;13.60;75.70;;;;;;5072872;28;20035;-73
2021/05/09 02:20:33;;;;;;;2.85;2.25;;;13.50;75.70;;;;;;5072913;28;20465;-73
2021/05/09 02:22:59;;;;;;;5.38;2.80;;;13.50;75.90;;;;;;5073308;28;20476;-73
2021/05/09 02:25:25;;;;;;;5.53;2.47;;;13.40;75.90;;;;;;5072700;28;20214;-73
2021/05/09 02:27:50;;;;;;;2.75;2.30;;;13.40;76.00;;;;;;5073269;28;20116;-72
2021/05/09 02:30:16;;;;;;;3.70;2.63;;;13.30;76.10;;;;;;5072451;28;20134;-73
2021/05/09 02:32:42;;;;;;;3.70;2.50;;;13.20;76.20;;;;;;5072571;28;20035;-72
2021/05/09 02:35:08;;;;;;;3.95;2.38;;;13.20;76.30;;;;;;5072692;28;20480;-72
2021/05/09 02:37:34;;;;;;;4.07;2.70;;;13.10;76.40;;;;;;5071286;28;20035;-72
2021/05/09 02:40:00;;;;;;;4.07;2.45;;;13.10;76.40;;;;;;5072980;28;20028;-73
2021/05/09 02:42:25;;;;;;;2.88;2.50;;;13.00;76.50;;;;;;5071268;28;20062;-73
2021/05/09 02:44:51;;;;;;;3.33;2.50;;;13.00;76.60;;;;;;5071295;28;20054;-72
2021/05/09 02:47:29;;;;;;;5.18;2.78;;;12.90;76.70;;;;;;5072860;28;20136;-72
2021/05/09 02:50:00;;;;;;;4.55;2.92;;;12.90;76.80;;;;;;5071063;28;20112;-72
2021/05/09 02:52:25;;;;;;;3.20;2.55;;;12.80;76.90;;;;;;5074341;28;20032;-73
2021/05/09 02:54:51;;;;;;;2.83;2.38;;;12.70;77.00;;;;;;5076287;28;20358;-72
2021/05/09 02:57:18;;;;;;;4.68;2.63;;;12.70;77.20;;;;;;5076298;28;20025;-73
2021/05/09 02:59:44;;;;;;;3.78;2.70;;;12.70;77.30;;;;;;5074990;28;20028;-73
2021/05/09 03:02:09;;;;;;;4.43;2.67;;;12.60;77.40;;;;;;5075043;28;20027;-73
2021/05/09 03:04:35;;;;;;;4.05;2.80;;;12.60;77.50;;;;;;5074995;28;20035;-73
2021/05/09 03:07:01;;;;;;;3.90;2.88;;;12.60;78.10;;;;;;5076099;28;20337;-72
2021/05/09 03:09:27;;;;;;;3.58;2.28;;;12.50;77.50;;;;;;5074680;28;20035;-73
2021/05/09 03:11:52;;;;;;;4.75;2.80;;;12.50;77.70;;;;;;5074754;28;20025;-73
2021/05/09 03:14:18;;;;;;;4.18;2.90;;;12.50;77.80;;;;;;5074619;28;20036;-73
2021/05/09 03:16:44;;;;;;;5.70;3.08;;;12.40;77.80;;;;;;5074603;28;20024;-73
2021/05/09 03:19:09;;;;;;;4.57;2.85;;;12.40;77.80;;;;;;5075905;28;20020;-72
2021/05/09 03:21:35;;;;;;;3.50;2.72;;;12.40;77.90;;;;;;5075920;28;20029;-73
2021/05/09 03:24:02;;;;;;;5.65;3.22;;;12.40;78.00;;;;;;5076027;28;20033;-73
2021/05/09 03:26:28;;;;;;;3.28;2.55;;;12.30;78.00;;;;;;5075756;28;20434;-72
2021/05/09 03:28:54;;;;;;;3.70;2.38;;;12.30;78.10;;;;;;5075607;28;20025;-72
2021/05/09 03:31:19;;;;;;;3.17;2.45;;;12.30;78.10;;;;;;5075999;28;20037;-72
2021/05/09 03:33:45;;;;;;;4.25;2.80;;;12.30;78.10;;;;;;5075672;28;20047;-73
2021/05/09 03:36:11;;;;;;;3.50;2.60;;;12.30;78.20;;;;;;5074288;28;20434;-73
2021/05/09 03:38:36;;;;;;;3.42;2.70;;;12.30;78.20;;;;;;5074360;28;20383;-73
2021/05/09 03:41:02;;;;;;;3.55;2.88;;;12.30;78.30;;;;;;5075524;28;20032;-73
2021/05/09 03:43:28;;;;;;;3.88;3.17;;;12.40;78.30;;;;;;5074202;28;20078;-73
2021/05/09 03:45:53;;;;;;;3.88;2.90;;;12.40;78.30;;;;;;5074126;28;20031;-73
2021/05/09 03:48:19;;;;;;;4.03;2.72;;;12.40;78.30;;;;;;5074315;28;20031;-73
2021/05/09 03:50:45;;;;;;;4.95;2.85;;;12.40;78.30;;;;;;5075284;28;20029;-72
2021/05/09 03:53:10;;;;;;;3.90;2.95;;;12.40;78.30;;;;;;5074006;28;20465;-72
2021/05/09 03:55:36;;;;;;;2.85;2.58;;;12.40;78.40;;;;;;5075537;28;20379;-74
2021/05/09 03:58:02;;;;;;;6.15;2.92;;;12.40;78.40;;;;;;5075622;28;20020;-73
2021/05/09 04:00:27;;;;;;;3.67;2.88;;;12.40;78.40;;;;;;5075656;28;20460;-73
2021/05/09 04:02:53;;;;;;;4.90;2.75;;;12.40;78.30;;;;;;5074807;28;20035;-73
2021/05/09 04:05:19;;;;;;;3.70;2.90;;;12.40;78.30;;;;;;5073701;28;20070;-73
2021/05/09 04:07:44;;;;;;;3.58;2.97;;;12.40;78.40;;;;;;5075312;28;20484;-73
2021/05/09 04:10:10;;;;;;;5.38;2.88;;;12.40;78.40;;;;;;5073615;28;20472;-73
2021/05/09 04:12:36;;;;;;;4.32;3.03;;;12.40;78.40;;;;;;5073546;28;20032;-73
2021/05/09 04:15:02;;;;;;;4.75;2.80;;;12.40;78.50;;;;;;5074792;28;20069;-73
2021/05/09 04:17:28;;;;;;;4.45;3.28;;;12.40;78.40;;;;;;5075250;28;20048;-73
2021/05/09 04:19:53;;;;;;;4.22;2.80;;;12.40;78.40;;;;;;5074616;28;20129;-73
2021/05/09 04:22:19;;;;;;;3.92;2.72;;;12.40;78.50;;;;;;5074815;28;20025;-73
2021/05/09 04:24:45;;;;;;;3.75;2.85;;;12.50;78.50;;;;;;5073192;28;20511;-73
2021/05/09 04:27:10;;;;;;;3.63;3.17;;;12.50;78.50;;;;;;5074691;28;20029;-73
2021/05/09 04:29:36;;;;;;;3.88;2.92;;;12.50;78.40;;;;;;5074416;28;20412;-73
2021/05/09 04:32:02;;;;;;;3.25;2.40;;;12.50;78.40;;;;;;5074480;28;20051;-73
2021/05/09 04:34:28;;;;;;;3.40;2.95;;;12.60;78.40;;;;;;5073121;28;20547;-73
2021/05/09 04:36:53;;;;;;;4.35;2.53;;;12.60;78.30;;;;;;5073023;28;20058;-73
2021/05/09 04:39:23;;;;;;;4.50;2.95;;;12.60;78.30;;;;;;5072913;28;20051;-73
2021/05/09 04:41:48;;;;;;;3.38;2.58;;;12.60;78.30;;;;;;5072892;28;20017;-73
2021/05/09 04:44:14;;;;;;;3.85;2.72;;;12.70;78.30;;;;;;5072847;28;20502;-73
2021/05/09 04:46:40;;;;;;;3.83;2.80;;;12.70;78.20;;;;;;5072746;28;20031;-73
2021/05/09 04:49:06;;;;;;;3.80;2.92;;;12.70;78.20;;;;;;5072725;28;20107;-73
2021/05/09 04:51:32;;;;;;;2.97;2.67;;;12.70;78.10;;;;;;5072629;28;20461;-73
2021/05/09 04:53:58;;;;;;;5.40;2.92;;;12.80;78.20;;;;;;5073493;28;20027;-72
2021/05/09 04:56:24;;;;;;;3.97;2.72;;;12.80;78.20;;;;;;5073852;28;20040;-73
2021/05/09 04:58:50;;;;;;;3.42;2.67;;;12.90;78.20;;;;;;5072535;28;20020;-73
2021/05/09 05:01:15;;;;;;;3.70;2.67;;;12.90;78.10;;;;;;5072440;28;20025;-73
2021/05/09 05:03:43;;;;;;;2.97;2.67;;;12.90;78.00;;;;;;5072769;28;20020;-73
2021/05/09 05:06:09;;;;;;;2.70;2.40;;;13.00;78.00;;;;;;5073757;28;20020;-73
2021/05/09 05:08:35;;;;;;;3.85;3.00;;;13.00;78.00;;;;;;5072486;28;20035;-73
2021/05/09 05:11:02;;;;;;;3.25;2.50;;;13.10;77.90;;;;;;5072262;28;20505;-73
2021/05/09 05:13:31;;;;;;;3.13;2.80;;;13.10;77.90;;;;;;5072346;28;20375;-73
2021/05/09 05:15:58;;;;;;;3.63;2.80;;;13.20;77.80;;;;;;5072984;28;20100;-73
2021/05/09 05:18:25;;;;;;;4.55;3.00;;;13.20;77.70;;;;;;5073806;28;20095;-73
2021/05/09 05:20:57;;;;;;;3.42;2.70;;;13.20;77.60;;;;;;5073475;28;20070;-73
2021/05/09 05:23:25;;;;;;;4.50;2.80;;;13.30;77.60;;;;;;5072047;28;20020;-73
2021/05/09 05:25:51;;;;;;;3.58;2.90;;;13.40;77.50;;;;;;5072061;28;20123;-73
2021/05/09 05:28:16;;;;;;;4.72;2.90;;;13.40;77.40;;;;;;5071994;28;20067;-73
2021/05/09 05:30:44;;;;;;;3.92;2.92;;;13.50;77.30;;;;;;5071841;28;20445;-73
2021/05/09 05:33:26;;;;;;;4.30;3.20;;;13.60;77.30;;;;;;5071933;28;20024;-72
2021/05/09 05:35:52;;;;;;;3.17;2.88;;;13.60;77.20;;;;;;5073289;28;20032;-73
2021/05/09 05:38:18;;;;;;;3.88;2.83;;;13.70;77.10;;;;;;5073083;28;20025;-73
2021/05/09 05:40:44;;;;;;;6.18;3.13;;;13.80;77.10;;;;;;5071952;28;20395;-73
2021/05/09 05:43:09;;;;;;;4.03;2.83;;;13.80;76.90;;;;;;5071770;28;20029;-74
2021/05/09 05:45:35;;;;;;;5.40;3.05;;;13.90;76.90;;;;;;5072046;28;20028;-73
2021/05/09 05:48:01;;;;;;;4.07;3.10;;;14.00;76.90;;;;;;5071732;28;20128;-73
2021/05/09 05:50:26;;;;;;;4.38;3.17;;;14.00;76.80;;;;;;5071625;28;20049;-73
2021/05/09 05:52:52;;;;;;;4.53;3.05;;;14.00;76.70;;;;;;5071683;28;20025;-72
2021/05/09 05:55:17;;;;;;;3.45;2.90;;;14.10;76.70;;;;;;5071571;28;20028;-72
2021/05/09 05:57:43;;;;;;;4.50;3.20;;;14.10;76.70;;;;;;5072882;28;20464;-72
2021/05/09 06:00:09;;;;;;;5.28;3.20;;;14.10;76.70;;;;;;5072797;28;20038;-73
2021/05/09 06:02:35;;;;;;;4.75;2.78;;;14.20;76.70;;;;;;5073294;28;20029;-72
2021/05/09 06:05:00;;;;;;;3.22;2.53;;;14.20;76.50;;;;;;5071459;28;20024;-72
2021/05/09 06:07:28;;;;;;;4.90;2.72;;;14.30;76.50;;;;;;5072620;28;20358;-72
2021/05/09 06:09:54;;;;;;;3.50;2.83;;;14.30;76.40;;;;;;5072738;28;20020;-72
2021/05/09 06:12:20;;;;;;;3.78;2.60;;;14.40;76.50;;;;;;5072835;28;20380;-72
2021/05/09 06:14:45;;;;;;;3.55;2.35;;;14.50;76.30;;;;;;5071382;28;20028;-72
2021/05/09 06:17:11;;;;;;;3.38;2.47;;;14.50;76.30;;;;;;5071281;28;20021;-73
2021/05/09 06:19:37;;;;;;;3.05;2.17;;;14.60;76.20;;;;;;5072736;28;20103;-74
2021/05/09 06:22:03;;;;;;;5.53;2.42;;;14.70;76.00;;;;;;5071398;28;20028;-73
2021/05/09 06:24:28;;;;;;;2.80;2.00;;;14.80;75.90;;;;;;5072631;28;20044;-73
2021/05/09 06:26:54;;;;;;;3.35;2.20;;;14.90;75.80;;;;;;5072332;28;20021;-73
2021/05/09 06:29:19;;;;;;;3.42;2.22;;;15.00;75.60;;;;;;5076574;28;20045;-73
2021/05/09 06:31:48;;;;;;;4.10;2.15;;;15.10;75.50;;;;;;5075230;28;20045;-73
2021/05/09 06:34:13;;;;;;;3.45;2.28;;;15.20;75.40;;;;;;5076546;28;20028;-73
2021/05/09 06:36:39;;;;;;;2.78;2.10;;;15.20;75.10;;;;;;5075362;28;20025;-72
2021/05/09 06:39:06;;;;;;;2.63;2.00;;;15.30;74.90;;;;;;5075348;28;20027;-72
2021/05/09 06:41:34;;;;;;;1.98;1.80;;;15.40;74.70;;;;;;5076502;28;20429;-72
2021/05/09 06:44:01;;;;;;;3.25;1.80;;;15.50;74.50;;;;;;5075170;28;20379;-73
2021/05/09 06:46:27;;;;;;;3.83;1.90;;;15.70;74.00;;;;;;5075134;28;20048;-72
2021/05/09 06:48:53;;;;;;;2.30;1.90;;;15.80;73.80;;;;;;5075080;28;20056;-72
2021/05/09 06:51:19;;;;;;;2.10;1.90;;;15.90;73.80;;;;;;5076273;28;20029;-72
2021/05/09 06:53:45;;;;;;;2.28;1.83;;;16.00;73.70;;;;;;5076460;28;20048;-73
2021/05/09 06:56:11;;;;;;;2.65;2.40;;;16.10;73.50;;;;;;5074881;28;20423;-73
2021/05/09 06:58:37;;;;;;;1.90;1.80;;;16.20;73.30;;;;;;5076184;28;20078;-72
2021/05/09 07:01:03;;;;;;;2.03;1.90;;;16.30;73.20;;;;;;5074712;28;20016;-73
2021/05/09 07:03:28;;;;;;;2.33;1.90;;;16.40;73.00;;;;;;5075936;28;20047;-73
2021/05/09 07:05:54;;;;;;;2.58;1.65;;;16.40;72.70;;;;;;5076403;28;20108;-72
2021/05/09 07:08:20;;;;;;;2.25;2.05;;;16.50;72.50;;;;;;5075886;28;20478;-72
2021/05/09 07:10:45;;;;;;;2.17;1.80;;;16.50;72.10;;;;;;5074506;28;20025;-73
2021/05/09 07:13:14;;;;;;;2.05;1.83;;;16.60;72.00;;;;;;5075675;28;20063;-72
2021/05/09 07:15:41;;;;;;;2.10;1.90;;;16.60;71.60;;;;;;5075672;28;20025;-72
2021/05/09 07:20:41;;;;;;;2.53;1.70;;;16.80;71.30;;;;;;5076447;28;20043;-73
2021/05/09 07:23:07;;;;;;;2.28;1.90;;;16.80;71.00;;;;;;5074396;28;20043;-74
2021/05/09 07:25:33;;;;;;;2.30;2.03;;;16.90;70.70;;;;;;5074228;28;20106;-71
2021/05/09 07:28:10;;;;;;;2.25;2.05;;;17.00;70.70;;;;;;5074032;28;20026;-71
2021/05/09 07:30:38;;;;;;;2.60;1.90;;;17.10;70.40;;;;;;5073981;28;20131;-71
2021/05/09 07:33:04;;;;;;;2.42;1.80;;;17.20;70.10;;;;;;5074089;28;20068;-71
2021/05/09 07:35:30;;;;;;;3.53;2.17;;;17.30;69.50;;;;;;5073887;28;20469;-72
2021/05/09 07:37:59;;;;;;;2.10;1.90;;;17.40;69.00;;;;;;5074637;28;20016;-72
2021/05/09 07:40:25;;;;;;;2.55;2.00;;;17.40;68.90;;;;;;5075173;28;20119;-72
2021/05/09 07:42:50;;;;;;;3.60;2.28;;;17.50;68.70;;;;;;5075190;28;20100;-72
2021/05/09 07:45:19;;;;;;;2.15;1.95;;;17.50;68.60;;;;;;5075175;28;20387;-72
2021/05/09 07:47:44;;;;;;;3.08;1.92;;;17.50;68.60;;;;;;5075503;28;20021;-72
2021/05/09 07:50:11;;;;;;;2.55;1.67;;;17.50;68.50;;;;;;5074949;28;20070;-72
2021/05/09 07:52:37;;;;;;;2.25;1.70;;;17.50;68.40;;;;;;5073731;28;20017;-72
2021/05/09 07:55:04;;;;;;;2.28;2.00;;;17.60;68.50;;;;;;5073751;28;20391;-72
2021/05/09 07:57:30;;;;;;;2.20;1.90;;;17.60;68.40;;;;;;5074388;28;20017;-71
2021/05/09 07:59:56;;;;;;;1.98;1.58;;;17.80;68.20;;;;;;5075130;28;20032;-70
2021/05/09 08:02:21;;;;;;;2.80;1.55;;;17.90;68.00;;;;;;5074993;28;20025;-71
2021/05/09 08:04:47;;;;;;;2.75;1.80;;;18.10;67.90;;;;;;5073564;28;20028;-72
2021/05/09 08:07:13;;;;;;;2.60;1.70;;;18.20;67.50;;;;;;5074758;28;20117;-72
2021/05/09 08:09:39;;;;;;;1.55;1.45;;;18.40;67.30;;;;;;5074698;28;20096;-72
2021/05/09 08:12:05;;;;;;;4.55;1.70;;;18.50;67.70;;;;;;5074868;28;20031;-72
2021/05/09 08:14:31;;;;;;;2.10;1.70;;;18.60;67.00;;;;;;5073374;28;20113;-71
2021/05/09 08:16:57;;;;;;;2.33;1.70;;;18.70;66.90;;;;;;5072962;28;20495;-71
2021/05/09 08:19:23;;;;;;;1.65;1.55;;;18.80;66.60;;;;;;5072887;28;20020;-72
2021/05/09 08:21:50;;;;;;;3.88;1.75;;;19.00;66.50;;;;;;5073019;28;20025;-72
2021/05/09 08:24:17;;;;;;;2.00;1.58;;;19.10;66.30;;;;;;5074327;28;20052;-73
2021/05/09 08:26:43;;;;;;;1.63;1.33;;;19.20;66.20;;;;;;5073250;28;20035;-73
2021/05/09 08:29:09;;;;;;;2.10;1.73;;;19.30;65.50;;;;;;5072857;28;20048;-73
2021/05/09 08:31:36;;;;;;;2.38;1.50;;;19.50;64.80;;;;;;5074453;28;20029;-73
2021/05/09 08:34:02;;;;;;;1.75;1.50;;;19.50;64.40;;;;;;5072910;28;20021;-72
2021/05/09 08:36:28;;;;;;;1.52;1.33;;;19.50;63.80;;;;;;5072870;28;20021;-72
2021/05/09 08:38:53;;;;;;;2.13;1.13;;;19.70;63.20;;;;;;5074310;28;20075;-72
2021/05/09 08:41:19;;;;;;;1.77;1.42;;;19.80;63.00;;;;;;5074188;28;20103;-72
2021/05/09 08:44:04;;;;;;;1.83;1.20;;;19.90;62.80;;;;;;5074630;28;20437;-72
2021/05/09 08:46:30;;;;;;;1.50;1.30;;;20.00;62.40;;;;;;5072642;28;20486;-71
2021/05/09 08:48:56;;;;;;;2.42;1.63;;;20.10;62.40;;;;;;5072546;28;20024;-72
2021/05/09 08:51:22;;;;;;;2.95;1.50;;;20.20;62.50;;;;;;5072222;28;20055;-72
2021/05/09 08:53:49;;;;;;;3.58;2.28;;;20.30;62.30;;;;;;5073966;28;20507;-71
2021/05/09 08:56:14;;;;;;;4.00;1.60;;;20.40;61.90;;;;;;5073848;28;20025;-72
2021/05/09 08:58:40;;;;;;;1.63;1.40;;;20.40;61.50;;;;;;5073213;28;20035;-72
2021/05/09 09:01:06;;;;;;;3.38;1.92;;;20.40;61.50;;;;;;5072942;28;20055;-74
2021/05/09 09:03:34;;;;;;;1.90;1.40;;;20.40;61.40;;;;;;5072437;28;20452;-73
2021/05/09 09:06:02;;;;;;;1.48;1.38;;;20.40;61.50;;;;;;5073711;28;20032;-73
2021/05/09 09:08:28;;;;;;;2.00;1.50;;;20.40;61.70;;;;;;5073527;28;20052;-73
2021/05/09 09:10:53;;;;;;;3.75;1.45;;;20.40;61.60;;;;;;5073686;28;20114;-74
2021/05/09 09:13:33;;;;;;;1.67;1.58;;;20.50;61.80;;;;;;5074110;28;20176;-72
2021/05/09 09:15:59;;;;;;;2.08;1.83;;;20.50;61.90;;;;;;5073209;28;20034;-74
2021/05/09 09:18:43;;;;;;;2.63;1.73;;;20.50;61.80;;;;;;5073356;28;20096;-73
2021/05/09 09:21:30;;;;;;;2.10;1.90;;;20.50;61.90;;;;;;5073439;28;20094;-73
2021/05/09 09:24:06;;;;;;;2.92;2.00;;;20.60;62.00;;;;;;5073284;28;20029;-73
2021/05/09 09:26:48;;;;;;;2.70;1.98;;;20.70;62.00;;;;;;5073263;28;20428;-73
2021/05/09 09:29:33;;;;;;;1.98;1.70;;;20.70;62.00;;;;;;5071498;28;20488;-73
2021/05/09 09:32:06;;;;;;;4.70;2.10;;;20.80;62.00;;;;;;5073526;28;20107;-73
2021/05/09 09:34:48;;;;;;;2.70;2.00;;;20.90;62.00;;;;;;5072259;28;20353;-73
2021/05/09 09:37:16;;;;;;;2.28;1.83;;;21.00;61.90;;;;;;5073024;28;20020;-72
2021/05/09 09:39:59;;;;;;;1.58;1.48;;;21.00;62.00;;;;;;5073048;28;20368;-73
2021/05/09 09:42:40;;;;;;;2.20;1.67;;;21.10;62.00;;;;;;5071825;28;20020;-73
2021/05/09 09:45:26;;;;;;;2.70;1.58;;;21.10;61.90;;;;;;5071807;28;20029;-73
2021/05/09 09:47:53;;;;;;;2.47;1.70;;;21.20;61.90;;;;;;5071816;28;20030;-73
2021/05/09 09:50:39;;;;;;;2.20;1.80;;;21.20;61.80;;;;;;5071639;28;20054;-73
2021/05/09 09:53:28;;;;;;;3.85;1.70;;;21.20;61.70;;;;;;5073169;28;20075;-73
2021/05/09 09:56:08;;;;;;;3.50;2.00;;;21.20;61.80;;;;;;5072825;28;20054;-73
2021/05/09 09:59:04;;;;;;;3.17;1.83;;;21.20;61.80;;;;;;5071578;28;20013;-73
2021/05/09 10:01:32;;;;;;;2.92;1.73;;;21.20;61.70;;;;;;5072571;28;20025;-73
2021/05/09 10:04:08;;;;;;;2.55;1.80;;;21.10;61.90;;;;;;5072920;28;20021;-74
2021/05/09 10:06:38;;;;;;;2.33;1.80;;;21.20;62.00;;;;;;5071524;28;20035;-73
2021/05/09 10:09:04;;;;;;;2.90;2.00;;;21.10;62.10;;;;;;5072903;28;20024;-73
2021/05/09 10:11:31;;;;;;;4.45;1.90;;;21.20;62.20;;;;;;5071318;28;20028;-73
2021/05/09 10:13:58;;;;;;;2.95;1.30;;;21.20;62.20;;;;;;5072615;28;20017;-73
2021/05/09 10:16:52;;;;;;;3.13;1.40;;;21.30;62.30;;;;;;5072725;28;20024;-73
2021/05/09 10:19:23;;;;;;;2.05;1.40;;;21.40;62.20;;;;;;5072523;28;20125;-73
2021/05/09 10:21:49;;;;;;;2.58;1.40;;;21.50;62.00;;;;;;5072874;28;20024;-73
2021/05/09 10:24:24;;;;;;;1.77;1.33;;;21.60;62.00;;;;;;5071423;28;20074;-73
2021/05/09 10:27:07;;;;;;;2.78;1.48;;;21.70;61.80;;;;;;5071369;28;20350;-73
2021/05/09 10:29:33;;;;;;;2.65;1.48;;;21.80;61.60;;;;;;5072620;28;20136;-74
2021/05/09 10:32:22;;;;;;;1.65;1.55;;;21.90;61.40;;;;;;5072529;28;20036;-73
2021/05/09 10:34:57;;;;;;;2.55;1.77;;;22.00;61.10;;;;;;5072412;28;20035;-73
2021/05/09 10:40:18;;;;;;;2.92;1.50;;;22.10;60.80;;;;;;5072880;28;20033;-73
2021/05/09 10:42:45;;;;;;;1.45;1.35;;;22.20;60.70;;;;;;5071190;28;20035;-74
2021/05/09 10:45:11;;;;;;;1.45;1.35;;;22.30;60.60;;;;;;5071137;28;20500;-74
2021/05/09 10:47:36;;;;;;;2.92;2.10;;;22.40;60.50;;;;;;5071028;28;20037;-74
2021/05/09 10:50:14;;;;;;;2.67;1.70;;;22.40;60.50;;;;;;5072718;28;20050;-74
2021/05/09 10:52:44;;;;;;;3.05;1.45;;;22.50;60.10;;;;;;5071070;28;20028;-73
2021/05/09 10:55:35;;;;;;;3.63;1.65;;;22.60;60.00;;;;;;5070822;28;20056;-73
2021/05/09 10:58:01;;;;;;;3.30;1.73;;;22.80;59.80;;;;;;5070996;28;20035;-74
2021/05/09 11:00:26;;;;;;;2.42;1.50;;;22.80;59.60;;;;;;5072277;28;20108;-73
2021/05/09 11:02:52;;;;;;;2.35;1.63;;;22.80;59.60;;;;;;5070959;28;20490;-73
2021/05/09 11:05:18;;;;;;;4.90;1.42;;;22.80;59.60;;;;;;5070950;28;20421;-73
2021/05/09 11:07:47;;;;;;;4.72;1.50;;;22.80;59.50;;;;;;5070820;28;20029;-73
2021/05/09 11:10:31;;;;;;;1.77;1.67;;;22.80;59.50;;;;;;5072469;28;20472;-73
2021/05/09 11:13:09;;;;;;;1.77;1.45;;;22.70;59.60;;;;;;5073601;28;20100;-74
2021/05/09 11:15:35;;;;;;;2.25;1.65;;;22.60;59.80;;;;;;5074976;28;20052;-73
2021/05/09 11:18:12;;;;;;;2.55;1.88;;;22.50;60.00;;;;;;5076153;28;20016;-73
2021/05/09 11:20:51;;;;;;;2.55;1.58;;;22.50;60.20;;;;;;5075927;28;20074;-73
2021/05/09 11:23:17;;;;;;;2.28;1.17;;;22.50;60.20;;;;;;5075843;28;20405;-73
2021/05/09 11:25:42;;;;;;;1.50;1.40;;;22.40;60.10;;;;;;5074414;28;20040;-73
2021/05/09 11:28:08;;;;;;;6.68;1.52;;;22.50;60.10;;;;;;5074219;28;20017;-73
2021/05/09 11:30:37;;;;;;;2.60;1.70;;;22.50;59.90;;;;;;5075265;28;20139;-73
2021/05/09 11:33:03;;;;;;;2.10;1.58;;;22.40;59.80;;;;;;5074269;28;20024;-73
2021/05/09 11:35:39;;;;;;;4.65;1.75;;;22.50;60.00;;;;;;5074187;28;20852;-73
2021/05/09 11:38:14;;;;;;;2.65;1.60;;;22.50;60.10;;;;;;5075516;28;20032;-73
2021/05/09 11:40:40;;;;;;;1.45;1.33;;;22.60;60.00;;;;;;5074154;28;20055;-73
2021/05/09 11:43:13;;;;;;;1.73;1.55;;;22.70;60.00;;;;;;5073977;28;20130;-73
2021/05/09 11:45:39;;;;;;;2.53;1.60;;;22.70;60.00;;;;;;5075240;28;20024;-73
2021/05/09 11:48:05;;;;;;;2.45;1.50;;;22.80;59.80;;;;;;5075378;28;20028;-73
2021/05/09 11:50:30;;;;;;;3.17;1.52;;;22.70;59.80;;;;;;5075127;28;20028;-73
2021/05/09 11:52:56;;;;;;;3.63;1.70;;;22.70;59.80;;;;;;5075592;28;20035;-74
2021/05/09 11:55:22;;;;;;;2.00;1.55;;;22.80;59.90;;;;;;5075051;28;20029;-73
2021/05/09 11:57:48;;;;;;;1.45;1.33;;;22.70;59.80;;;;;;5074825;28;20039;-73
2021/05/09 12:00:16;;;;;;;2.85;1.42;;;22.70;60.00;;;;;;5074833;28;20025;-73
2021/05/09 12:02:44;;;;;;;1.40;1.30;;;22.60;60.10;;;;;;5075349;28;20100;-73
2021/05/09 12:05:11;;;;;;;2.00;1.33;;;22.50;60.20;;;;;;5073688;28;20559;-73
2021/05/09 12:07:49;;;;;;;2.40;1.80;;;22.50;60.50;;;;;;5074852;28;20432;-73
2021/05/09 12:10:26;;;;;;;2.00;1.58;;;22.40;60.80;;;;;;5074946;28;20367;-73
2021/05/09 12:12:57;;;;;;;2.28;1.60;;;22.30;61.00;;;;;;5073611;28;20150;-73
2021/05/09 12:15:23;;;;;;;2.25;1.60;;;22.20;61.30;;;;;;5074719;28;20025;-74
2021/05/09 12:17:53;;;;;;;1.88;1.40;;;22.20;61.50;;;;;;5074761;28;20064;-73
2021/05/09 12:20:34;;;;;;;3.30;1.63;;;22.10;61.60;;;;;;5073143;28;20029;-74
2021/05/09 12:23:03;;;;;;;1.70;1.27;;;22.10;61.70;;;;;;5074634;28;20028;-74
2021/05/09 12:25:30;;;;;;;2.35;1.30;;;22.10;61.80;;;;;;5073244;28;20052;-74
2021/05/09 12:28:03;;;;;;;1.58;1.30;;;22.10;61.80;;;;;;5073385;28;20031;-74
2021/05/09 12:30:32;;;;;;;1.70;1.60;;;22.10;61.80;;;;;;5074449;28;20435;-74
2021/05/09 12:32:57;;;;;;;4.47;1.70;;;22.10;61.80;;;;;;5074468;28;20103;-74
2021/05/09 12:35:23;;;;;;;2.20;1.48;;;22.20;61.80;;;;;;5073312;28;20479;-74
2021/05/09 12:37:49;;;;;;;2.80;1.70;;;22.20;61.70;;;;;;5073441;28;20070;-74
2021/05/09 12:40:25;;;;;;;2.00;1.70;;;22.20;61.60;;;;;;5072992;28;20037;-74
2021/05/09 12:43:01;;;;;;;2.90;1.67;;;22.30;61.60;;;;;;5072466;28;20411;-74
2021/05/09 12:45:30;;;;;;;1.88;1.60;;;22.30;61.60;;;;;;5072846;28;20067;-74
2021/05/09 12:48:15;;;;;;;2.30;1.67;;;22.30;61.60;;;;;;5072174;28;20044;-73
2021/05/09 12:51:05;;;;;;;3.25;1.60;;;22.30;61.60;;;;;;5074362;28;20036;-73
2021/05/09 12:53:51;;;;;;;1.85;1.38;;;22.30;61.50;;;;;;5072581;28;20020;-73
2021/05/09 12:56:27;;;;;;;1.70;1.60;;;22.30;61.60;;;;;;5072659;28;20024;-73
2021/05/09 12:59:25;;;;;;;1.60;1.50;;;22.40;61.70;;;;;;5072486;28;20112;-73